Time;durP1;ratioP1;P1;durP2;ratioP2;P2;SDS_P1;SDS_P2;PMS_P1;PMS_P2;Temp;Humidity;BMP_temperature;BMP_pressure;BME280_temperature;BME280_humidity;BME280_pressure;Samples;Min_cycle;Max_cycle;Signal;HPM_P1;HPM_P2
2021/03/15 00:00:49;;;;;;;22.30;8.77;;;11.40;70.00;;;;;;5066542;28;20036;-80
2021/03/15 00:03:16;;;;;;;17.77;7.95;;;11.40;70.00;;;;;;5065551;28;20476;-77
2021/03/15 00:05:43;;;;;;;16.90;8.93;;;11.40;70.10;;;;;;5066674;28;20028;-78
2021/03/15 00:08:09;;;;;;;21.48;8.00;;;11.30;69.90;;;;;;5066595;28;20480;-80
2021/03/15 00:10:35;;;;;;;12.23;6.28;;;11.40;70.10;;;;;;5066567;28;20036;-76
2021/03/15 00:13:02;;;;;;;15.02;8.32;;;11.30;69.90;;;;;;5066953;28;20121;-78
2021/03/15 00:15:28;;;;;;;15.13;7.90;;;11.30;70.00;;;;;;5069408;28;20063;-77
2021/03/15 00:17:54;;;;;;;18.13;6.82;;;11.30;70.00;;;;;;5053649;28;20047;-77
2021/03/15 00:20:21;;;;;;;14.55;7.05;;;11.30;70.00;;;;;;5076820;28;20024;-78
2021/03/15 00:22:48;;;;;;;13.25;7.28;;;11.30;70.00;;;;;;5086793;28;20165;-80
2021/03/15 00:25:16;;;;;;;18.13;7.95;;;11.30;70.00;;;;;;5066860;28;20551;-80
2021/03/15 00:27:42;;;;;;;12.27;6.85;;;11.30;70.00;;;;;;5067027;28;20036;-80
2021/03/15 00:30:11;;;;;;;14.75;7.50;;;11.30;70.00;;;;;;5065331;28;20096;-80
2021/03/15 00:32:37;;;;;;;14.02;7.57;;;11.30;70.00;;;;;;5064940;28;20028;-80
2021/03/15 00:35:09;;;;;;;12.48;7.20;;;11.30;70.00;;;;;;5064945;28;20106;-77
2021/03/15 00:37:35;;;;;;;15.55;6.95;;;11.30;70.00;;;;;;5065641;28;20063;-75
2021/03/15 00:40:02;;;;;;;17.08;8.38;;;11.30;70.00;;;;;;5064932;28;20594;-76
2021/03/15 00:42:28;;;;;;;15.38;7.75;;;11.30;70.00;;;;;;5064790;28;20056;-80
2021/03/15 00:44:54;;;;;;;14.45;7.60;;;11.30;70.00;;;;;;5063826;28;20255;-78
2021/03/15 00:47:20;;;;;;;18.65;7.78;;;11.30;70.00;;;;;;5066298;28;20090;-79
2021/03/15 00:49:46;;;;;;;18.40;8.75;;;11.30;70.00;;;;;;5047494;28;20033;-80
2021/03/15 00:52:13;;;;;;;16.83;7.70;;;11.30;70.10;;;;;;5047702;28;20062;-76
2021/03/15 00:54:39;;;;;;;15.52;8.32;;;11.30;70.00;;;;;;5063629;28;20067;-79
2021/03/15 00:57:14;;;;;;;15.98;7.72;;;11.20;69.90;;;;;;5063848;28;20493;-75
2021/03/15 00:59:41;;;;;;;13.25;7.60;;;11.20;69.80;;;;;;5051607;28;20517;-80
2021/03/15 01:02:07;;;;;;;19.83;7.50;;;11.20;69.80;;;;;;5047504;28;20044;-83
2021/03/15 01:04:33;;;;;;;12.50;7.20;;;11.20;69.90;;;;;;5064888;28;20040;-79
2021/03/15 01:07:12;;;;;;;18.08;7.70;;;11.20;69.90;;;;;;5049024;28;20052;-79
2021/03/15 01:09:40;;;;;;;14.88;7.50;;;11.20;69.90;;;;;;5046571;28;20063;-84
2021/03/15 01:12:17;;;;;;;14.52;7.68;;;11.20;69.90;;;;;;5064961;28;20032;-79
2021/03/15 01:14:43;;;;;;;14.38;7.53;;;11.20;69.90;;;;;;5065494;28;20056;-75
2021/03/15 01:17:13;;;;;;;11.93;7.72;;;11.20;69.90;;;;;;5047974;28;20601;-75
2021/03/15 01:19:42;;;;;;;14.50;8.27;;;11.20;70.00;;;;;;5031642;28;20040;-76
2021/03/15 01:22:08;;;;;;;21.75;8.20;;;11.20;70.00;;;;;;5047168;28;20547;-77
2021/03/15 01:24:34;;;;;;;9.10;6.45;;;11.20;70.00;;;;;;5065211;28;20032;-77
2021/03/15 01:27:00;;;;;;;15.45;7.30;;;11.20;70.00;;;;;;5064509;28;20546;-78
2021/03/15 01:29:26;;;;;;;10.35;7.28;;;11.10;69.80;;;;;;5047815;28;20067;-77
2021/03/15 01:31:53;;;;;;;11.35;7.07;;;11.10;69.80;;;;;;5065255;28;20056;-77
2021/03/15 01:34:18;;;;;;;13.73;7.93;;;11.10;69.80;;;;;;5064173;28;20044;-81
2021/03/15 01:36:44;;;;;;;16.20;7.50;;;11.10;69.90;;;;;;5047630;28;20033;-75
2021/03/15 01:39:10;;;;;;;15.57;6.97;;;11.10;69.90;;;;;;5047284;28;20045;-81
2021/03/15 01:41:36;;;;;;;17.92;7.75;;;11.10;69.90;;;;;;5064374;28;20032;-74
2021/03/15 01:44:03;;;;;;;19.17;7.50;;;11.10;69.90;;;;;;5071914;28;20036;-77
2021/03/15 01:46:29;;;;;;;15.48;7.32;;;11.10;69.90;;;;;;5065122;28;20137;-83
2021/03/15 01:48:55;;;;;;;17.70;8.35;;;11.10;69.90;;;;;;5063461;28;20043;-78
2021/03/15 01:51:21;;;;;;;15.98;7.30;;;11.10;69.90;;;;;;5064592;28;20045;-78
2021/03/15 01:53:47;;;;;;;14.10;8.50;;;11.10;70.00;;;;;;5063596;28;20040;-78
2021/03/15 01:56:13;;;;;;;17.42;7.70;;;11.10;69.90;;;;;;5063224;28;20048;-79
2021/03/15 01:58:40;;;;;;;16.15;7.15;;;11.10;70.50;;;;;;5064600;28;20048;-76
2021/03/15 02:01:06;;;;;;;19.17;7.55;;;11.00;69.80;;;;;;5063519;28;20063;-78
2021/03/15 02:03:33;;;;;;;20.08;7.85;;;11.10;70.00;;;;;;5064935;28;20028;-76
2021/03/15 02:05:59;;;;;;;18.80;7.65;;;11.00;69.80;;;;;;5063733;28;20016;-82
2021/03/15 02:08:26;;;;;;;14.98;8.02;;;11.00;69.80;;;;;;5046863;28;20073;-79
2021/03/15 02:10:52;;;;;;;14.32;6.82;;;11.00;69.80;;;;;;5065176;28;20032;-76
2021/03/15 02:13:46;;;;;;;10.48;6.70;;;11.00;69.90;;;;;;5066557;28;20032;-80
2021/03/15 02:16:15;;;;;;;11.35;6.63;;;11.00;69.90;;;;;;5063317;28;20368;-76
2021/03/15 02:19:03;;;;;;;15.80;7.47;;;11.00;69.90;;;;;;5050103;28;20044;-77
2021/03/15 02:21:53;;;;;;;13.65;6.90;;;11.00;69.90;;;;;;5068229;28;20028;-80
2021/03/15 02:24:37;;;;;;;16.67;6.72;;;11.00;69.90;;;;;;5066881;28;20427;-77
2021/03/15 02:27:34;;;;;;;10.67;6.53;;;11.00;70.00;;;;;;5050629;28;20131;-74
2021/03/15 02:30:23;;;;;;;14.70;6.97;;;11.00;69.90;;;;;;5067225;28;20696;-81
2021/03/15 02:33:18;;;;;;;16.95;7.75;;;11.00;69.90;;;;;;5069806;28;20037;-84
2021/03/15 02:35:49;;;;;;;12.85;6.82;;;11.00;69.90;;;;;;5046142;28;20043;-77
2021/03/15 02:38:16;;;;;;;12.90;6.90;;;11.00;69.90;;;;;;5069128;28;20344;-76
2021/03/15 02:40:47;;;;;;;13.73;6.88;;;11.00;69.90;;;;;;5051393;28;20513;-76
2021/03/15 02:43:31;;;;;;;12.95;6.85;;;10.90;69.80;;;;;;5070682;28;20033;-76
2021/03/15 02:46:05;;;;;;;16.38;7.72;;;10.90;69.80;;;;;;5076132;28;20029;-76
2021/03/15 02:48:34;;;;;;;;;;;10.90;69.80;;;;;;5092583;28;20105;-78
2021/03/15 02:51:01;;;;;;;15.82;6.68;;;10.90;69.80;;;;;;5088101;28;20342;-83
2021/03/15 02:53:29;;;;;;;17.92;6.88;;;10.90;69.80;;;;;;5054096;28;20488;-80
2021/03/15 02:56:01;;;;;;;18.15;7.40;;;10.90;69.80;;;;;;5054715;28;20503;-78
2021/03/15 02:58:28;;;;;;;14.70;7.18;;;10.80;69.70;;;;;;5082183;28;20036;-77
2021/03/15 03:00:57;;;;;;;12.63;7.45;;;10.80;69.70;;;;;;5073441;28;20067;-74
2021/03/15 03:03:26;;;;;;;16.65;7.00;;;10.80;69.80;;;;;;5053975;28;20074;-77
2021/03/15 03:05:55;;;;;;;15.73;7.47;;;10.80;69.80;;;;;;5087610;28;20028;-75
2021/03/15 03:08:22;;;;;;;15.68;6.47;;;10.80;69.80;;;;;;5070139;28;20044;-78
2021/03/15 03:10:51;;;;;;;13.65;6.82;;;10.80;69.80;;;;;;5079527;28;20078;-79
2021/03/15 03:13:18;;;;;;;10.70;6.20;;;10.80;69.90;;;;;;5070335;28;20293;-75
2021/03/15 03:15:45;;;;;;;14.45;6.95;;;10.80;69.90;;;;;;5069945;28;20111;-74
2021/03/15 03:18:15;;;;;;;12.60;6.03;;;10.80;69.90;;;;;;5070361;28;20040;-76
2021/03/15 03:20:48;;;;;;;9.23;6.05;;;10.80;69.90;;;;;;5070120;28;20224;-77
2021/03/15 03:23:14;;;;;;;13.10;6.78;;;10.80;69.90;;;;;;5070895;28;20032;-81
2021/03/15 03:25:41;;;;;;;10.55;5.85;;;10.80;69.90;;;;;;5070681;28;20067;-78
2021/03/15 03:28:10;;;;;;;14.60;6.63;;;10.80;69.90;;;;;;5083965;28;20648;-78
2021/03/15 03:30:39;;;;;;;17.13;6.28;;;10.80;69.90;;;;;;5091700;28;20031;-75
2021/03/15 03:33:07;;;;;;;13.10;6.28;;;10.80;69.90;;;;;;5073601;28;20031;-77
2021/03/15 03:35:34;;;;;;;12.45;6.43;;;10.80;69.90;;;;;;5090307;28;20043;-74
2021/03/15 03:38:00;;;;;;;16.10;7.25;;;10.80;69.90;;;;;;5073506;28;20483;-80
2021/03/15 03:40:27;;;;;;;11.57;6.35;;;10.80;69.90;;;;;;5090422;28;20040;-74
2021/03/15 03:42:53;;;;;;;12.77;5.93;;;10.80;69.90;;;;;;5089901;28;20592;-75
2021/03/15 03:45:19;;;;;;;13.68;7.30;;;10.80;69.90;;;;;;5091194;28;20036;-79
2021/03/15 03:47:46;;;;;;;15.32;6.43;;;10.80;69.90;;;;;;5089925;28;20028;-74
2021/03/15 03:50:19;;;;;;;13.05;6.07;;;10.80;70.00;;;;;;5091527;28;20064;-76
2021/03/15 03:53:16;;;;;;;9.07;5.75;;;10.80;70.00;;;;;;5073320;28;20032;-74
2021/03/15 03:55:46;;;;;;;8.63;4.82;;;10.80;70.00;;;;;;5068640;28;21711;-77
2021/03/15 03:58:17;;;;;;;11.63;5.30;;;10.70;69.80;;;;;;5089461;28;20055;-78
2021/03/15 04:00:44;;;;;;;15.40;6.78;;;10.70;69.80;;;;;;5090748;28;20034;-77
2021/03/15 04:03:17;;;;;;;11.93;5.68;;;10.70;69.90;;;;;;5091039;28;20052;-80
2021/03/15 04:05:48;;;;;;;14.45;6.05;;;10.70;69.90;;;;;;5049278;28;20029;-76
2021/03/15 04:08:20;;;;;;;10.13;5.93;;;10.70;69.90;;;;;;5082752;28;20041;-76
2021/03/15 04:10:48;;;;;;;9.93;6.07;;;10.70;69.90;;;;;;5049185;28;20068;-76
2021/03/15 04:13:19;;;;;;;11.30;6.38;;;10.70;69.90;;;;;;5049317;28;20036;-76
2021/03/15 04:15:47;;;;;;;10.68;6.05;;;10.70;69.90;;;;;;5049068;28;20029;-74
2021/03/15 04:18:16;;;;;;;11.40;5.80;;;10.70;69.90;;;;;;5049047;28;20123;-76
2021/03/15 04:20:44;;;;;;;10.13;5.65;;;10.70;69.90;;;;;;5048850;28;20086;-75
2021/03/15 04:23:14;;;;;;;9.35;5.40;;;10.70;69.90;;;;;;5050479;28;20444;-77
2021/03/15 04:25:44;;;;;;;10.02;5.50;;;10.70;69.90;;;;;;5082981;28;20021;-79
2021/03/15 04:28:12;;;;;;;13.05;5.95;;;10.70;70.00;;;;;;5049547;28;20460;-79
2021/03/15 04:30:38;;;;;;;8.52;5.45;;;10.60;69.80;;;;;;5032841;28;20052;-77
2021/03/15 04:33:06;;;;;;;10.15;5.72;;;10.60;69.80;;;;;;5049275;28;20029;-76
2021/03/15 04:35:34;;;;;;;11.15;6.35;;;10.70;70.00;;;;;;5048113;28;20028;-77
2021/03/15 04:38:03;;;;;;;10.68;5.93;;;10.60;70.30;;;;;;5048404;28;20478;-75
2021/03/15 04:40:31;;;;;;;14.82;6.32;;;10.60;69.80;;;;;;5048111;28;20028;-81
2021/03/15 04:43:00;;;;;;;13.02;6.07;;;10.60;69.90;;;;;;5049956;28;20052;-78
2021/03/15 04:45:32;;;;;;;11.73;5.20;;;10.60;69.90;;;;;;5049158;28;20060;-77
2021/03/15 04:48:00;;;;;;;12.05;5.63;;;10.50;69.80;;;;;;5050492;28;20033;-80
2021/03/15 04:50:27;;;;;;;10.85;5.65;;;10.50;69.80;;;;;;5049098;28;20294;-76
2021/03/15 04:52:54;;;;;;;10.77;5.43;;;10.50;69.80;;;;;;5048779;28;20033;-75
2021/03/15 04:55:21;;;;;;;9.30;5.68;;;10.50;69.90;;;;;;5048951;28;20032;-77
2021/03/15 04:57:49;;;;;;;14.73;6.13;;;10.50;69.90;;;;;;5081937;28;20080;-75
2021/03/15 05:00:17;;;;;;;11.57;5.88;;;10.50;69.90;;;;;;5065717;28;20484;-75
2021/03/15 05:02:46;;;;;;;8.30;5.00;;;10.50;69.90;;;;;;5049863;28;20035;-75
2021/03/15 05:05:15;;;;;;;11.38;5.45;;;10.50;69.90;;;;;;5049449;28;20047;-77
2021/03/15 05:07:43;;;;;;;10.10;5.75;;;10.50;70.00;;;;;;5050967;28;20120;-76
2021/03/15 05:10:11;;;;;;;12.10;6.07;;;10.50;69.90;;;;;;5055218;28;20029;-76
2021/03/15 05:12:38;;;;;;;9.60;5.45;;;10.40;69.80;;;;;;5054913;28;20079;-78
2021/03/15 05:15:08;;;;;;;10.48;5.07;;;10.40;69.80;;;;;;5050186;28;20029;-75
2021/03/15 05:17:36;;;;;;;10.48;5.57;;;10.40;69.80;;;;;;5082205;28;20052;-75
2021/03/15 05:20:05;;;;;;;10.07;5.05;;;10.40;69.80;;;;;;5032004;28;20238;-76
2021/03/15 05:22:32;;;;;;;9.50;4.70;;;10.40;69.90;;;;;;5048671;28;20506;-76
2021/03/15 05:25:01;;;;;;;7.22;4.95;;;10.40;69.90;;;;;;5048419;28;20353;-83
2021/03/15 05:27:29;;;;;;;13.57;5.72;;;10.40;69.90;;;;;;5048105;28;20025;-77
2021/03/15 05:29:57;;;;;;;10.00;5.38;;;10.40;69.90;;;;;;5049335;28;20489;-77
2021/03/15 05:32:25;;;;;;;7.18;4.70;;;10.40;69.90;;;;;;5048804;28;20029;-77
2021/03/15 05:34:53;;;;;;;8.77;5.30;;;10.40;70.00;;;;;;5048590;28;20119;-78
2021/03/15 05:37:20;;;;;;;11.75;5.45;;;10.40;70.00;;;;;;5048388;28;20025;-81
2021/03/15 05:39:46;;;;;;;9.68;4.70;;;10.40;70.00;;;;;;5048225;28;20106;-76
2021/03/15 05:42:12;;;;;;;8.88;4.57;;;10.30;69.80;;;;;;5031718;28;20032;-78
2021/03/15 05:45:15;;;;;;;9.45;5.68;;;10.30;69.80;;;;;;5048142;28;20041;-79
2021/03/15 05:48:06;;;;;;;11.57;5.30;;;10.30;69.90;;;;;;5071252;28;20025;-76
2021/03/15 05:50:54;;;;;;;7.82;4.75;;;10.40;70.00;;;;;;5067223;28;20072;-78
2021/03/15 05:53:47;;;;;;;7.00;4.47;;;10.30;69.80;;;;;;5069022;28;20050;-79
2021/03/15 05:56:16;;;;;;;8.20;4.75;;;10.30;69.80;;;;;;5047876;28;20138;-80
2021/03/15 05:59:07;;;;;;;11.50;5.30;;;10.30;69.80;;;;;;5069717;28;20127;-77
2021/03/15 06:02:21;;;;;;;9.85;4.47;;;10.30;69.90;;;;;;5070983;28;20033;-78
2021/03/15 06:05:26;;;;;;;8.87;4.67;;;10.30;69.90;;;;;;5027719;28;20362;-79
2021/03/15 06:08:10;;;;;;;6.13;4.47;;;10.30;69.80;;;;;;5051714;28;20309;-77
2021/03/15 06:10:36;;;;;;;9.88;5.20;;;10.30;69.80;;;;;;5031732;28;20532;-79
2021/03/15 06:13:17;;;;;;;7.72;4.18;;;10.30;69.80;;;;;;5064189;28;20128;-78
2021/03/15 06:15:45;;;;;;;8.13;4.78;;;10.30;69.90;;;;;;5047680;28;20037;-76
2021/03/15 06:18:13;;;;;;;6.47;4.03;;;10.30;69.90;;;;;;5066814;28;20040;-76
2021/03/15 06:20:43;;;;;;;11.43;5.35;;;10.20;69.70;;;;;;5070369;28;20067;-76
2021/03/15 06:23:09;;;;;;;11.35;4.13;;;10.20;69.70;;;;;;5065498;28;20071;-78
2021/03/15 06:25:37;;;;;;;8.80;4.95;;;10.30;70.00;;;;;;5072823;28;20031;-78
2021/03/15 06:28:05;;;;;;;8.80;4.57;;;10.20;69.80;;;;;;5071526;28;20036;-82
2021/03/15 06:30:31;;;;;;;8.82;4.60;;;10.30;70.00;;;;;;5072254;28;20034;-79
2021/03/15 06:32:59;;;;;;;10.85;4.57;;;10.30;70.00;;;;;;5056108;28;20078;-81
2021/03/15 06:35:28;;;;;;;7.35;4.18;;;10.30;70.00;;;;;;5075374;28;20222;-78
2021/03/15 06:37:55;;;;;;;8.27;4.53;;;10.30;70.00;;;;;;5099375;28;20041;-76
2021/03/15 06:40:23;;;;;;;12.77;5.05;;;10.30;70.00;;;;;;5072058;28;20028;-78
2021/03/15 06:42:51;;;;;;;12.00;4.10;;;10.30;70.00;;;;;;5049617;28;20513;-85
2021/03/15 06:45:22;;;;;;;11.38;5.30;;;10.30;70.00;;;;;;5056954;28;20135;-81
2021/03/15 06:47:50;;;;;;;8.02;5.00;;;10.30;70.00;;;;;;5069086;28;20033;-80
2021/03/15 06:50:18;;;;;;;11.98;4.78;;;10.30;69.90;;;;;;5062960;28;20138;-79
2021/03/15 06:52:53;;;;;;;7.78;3.95;;;10.40;70.10;;;;;;5064529;28;20066;-79
2021/03/15 06:55:29;;;;;;;11.23;4.28;;;10.40;70.10;;;;;;5071356;28;20090;-82
2021/03/15 06:57:56;;;;;;;8.80;4.75;;;10.40;70.10;;;;;;5069141;28;20079;-80
2021/03/15 07:00:25;;;;;;;11.77;4.03;;;10.40;70.00;;;;;;5071092;28;20070;-78
2021/03/15 07:03:04;;;;;;;8.98;4.82;;;10.40;70.00;;;;;;5075898;28;20028;-77
2021/03/15 07:05:31;;;;;;;9.07;4.55;;;10.40;70.00;;;;;;5068921;28;20024;-81
2021/03/15 07:07:59;;;;;;;7.72;4.35;;;10.50;70.10;;;;;;5115105;27;20082;-77
2021/03/15 07:10:28;;;;;;;13.30;5.13;;;10.50;70.10;;;;;;5050863;28;20413;-76
2021/03/15 07:13:11;;;;;;;12.75;4.50;;;10.50;70.10;;;;;;5047024;28;20029;-77
2021/03/15 07:15:42;;;;;;;11.40;4.82;;;10.50;70.60;;;;;;5052174;28;20109;-78
2021/03/15 07:18:18;;;;;;;11.82;4.85;;;10.50;70.20;;;;;;5069632;28;20842;-80
2021/03/15 07:20:51;;;;;;;8.02;4.38;;;10.50;70.30;;;;;;5053973;28;20119;-77
2021/03/15 07:23:39;;;;;;;9.93;4.93;;;10.60;70.40;;;;;;5065519;28;20066;-79
2021/03/15 07:26:14;;;;;;;10.65;5.05;;;10.60;70.50;;;;;;5068286;28;20040;-76
2021/03/15 07:28:42;;;;;;;8.63;4.25;;;10.60;70.40;;;;;;5073918;28;20032;-77
2021/03/15 07:31:30;;;;;;;10.48;4.25;;;10.60;70.40;;;;;;5053819;28;20033;-78
2021/03/15 07:33:56;;;;;;;9.82;4.60;;;10.60;70.40;;;;;;5066248;28;20025;-77
2021/03/15 07:36:30;;;;;;;10.13;4.63;;;10.60;70.40;;;;;;5064702;28;20078;-75
2021/03/15 07:39:00;;;;;;;;;;;10.60;70.40;;;;;;5067156;28;20189;-76
2021/03/15 07:41:26;;;;;;;12.38;4.75;;;10.70;70.50;;;;;;5050519;28;19942;-78
2021/03/15 07:43:53;;;;;;;8.57;4.60;;;10.60;70.20;;;;;;5052327;28;20480;-78
2021/03/15 07:46:24;;;;;;;8.93;4.57;;;10.70;70.40;;;;;;5068377;28;20025;-83
2021/03/15 07:48:51;;;;;;;9.75;4.45;;;10.60;70.30;;;;;;5068995;28;20063;-79
2021/03/15 07:51:29;;;;;;;12.07;5.15;;;10.70;70.50;;;;;;5069564;28;20043;-79
2021/03/15 07:54:09;;;;;;;9.43;4.80;;;10.70;70.60;;;;;;5071267;28;20059;-79
2021/03/15 07:56:36;;;;;;;11.00;4.97;;;10.70;70.50;;;;;;5069881;28;20057;-79
2021/03/15 07:59:03;;;;;;;9.18;4.13;;;10.80;70.60;;;;;;5069282;28;20049;-77
2021/03/15 08:01:29;;;;;;;12.85;5.47;;;10.80;70.60;;;;;;5068565;28;20029;-82
2021/03/15 08:03:56;;;;;;;8.75;4.43;;;10.80;70.60;;;;;;5057729;28;20099;-78
2021/03/15 08:06:23;;;;;;;11.48;4.60;;;10.80;70.60;;;;;;5076374;28;20031;-80
2021/03/15 08:08:50;;;;;;;9.85;5.28;;;10.90;70.70;;;;;;5052794;28;20071;-78
2021/03/15 08:11:18;;;;;;;12.93;5.70;;;11.00;70.80;;;;;;5052734;28;20085;-78
2021/03/15 08:13:53;;;;;;;16.15;6.13;;;11.10;71.00;;;;;;5068651;28;20056;-78
2021/03/15 08:16:23;;;;;;;8.23;4.68;;;11.10;70.90;;;;;;5068723;28;20098;-81
2021/03/15 08:18:50;;;;;;;14.10;5.72;;;11.20;71.00;;;;;;5053005;28;20488;-88
2021/03/15 08:21:32;;;;;;;12.57;5.07;;;11.30;71.10;;;;;;5053050;28;20116;-79
2021/03/15 08:24:00;;;;;;;11.80;4.72;;;11.40;71.20;;;;;;5052039;28;20037;-80
2021/03/15 08:26:27;;;;;;;10.80;5.43;;;11.40;71.00;;;;;;5067435;28;20094;-77
2021/03/15 08:28:56;;;;;;;10.10;5.10;;;11.50;71.00;;;;;;5069360;28;20058;-80
2021/03/15 08:31:32;;;;;;;7.65;4.80;;;11.60;71.10;;;;;;5050560;28;20086;-79
2021/03/15 08:33:59;;;;;;;12.60;4.70;;;11.60;71.00;;;;;;5066615;28;20120;-79
2021/03/15 08:36:25;;;;;;;12.65;4.97;;;11.70;71.10;;;;;;5051307;28;20052;-79
2021/03/15 08:38:51;;;;;;;9.95;5.35;;;11.70;71.00;;;;;;5066206;28;20041;-78
2021/03/15 08:41:27;;;;;;;12.95;5.65;;;11.70;71.50;;;;;;5048568;28;20073;-76
2021/03/15 08:43:54;;;;;;;14.18;4.43;;;11.80;71.10;;;;;;5067603;28;20032;-76
2021/03/15 08:46:23;;;;;;;8.77;5.07;;;11.90;71.20;;;;;;5066097;28;20029;-77
2021/03/15 08:48:52;;;;;;;18.88;5.70;;;12.00;71.20;;;;;;5047488;28;20072;-78
2021/03/15 08:51:33;;;;;;;12.38;5.10;;;12.10;71.40;;;;;;5046341;28;20032;-78
2021/03/15 08:54:03;;;;;;;17.38;5.78;;;12.20;71.40;;;;;;5066427;28;20028;-83
2021/03/15 08:56:29;;;;;;;12.35;4.70;;;12.30;71.40;;;;;;5053607;28;20067;-83
2021/03/15 08:59:00;;;;;;;12.85;5.35;;;12.40;71.40;;;;;;5052861;28;20071;-82
2021/03/15 09:01:28;;;;;;;13.68;5.85;;;12.50;71.40;;;;;;5071898;28;20457;-81
2021/03/15 09:03:55;;;;;;;10.52;4.75;;;12.60;71.80;;;;;;5070133;28;20032;-79
2021/03/15 09:06:31;;;;;;;15.68;5.72;;;12.80;72.40;;;;;;5085417;28;20044;-79
2021/03/15 09:09:04;;;;;;;16.35;5.70;;;12.90;72.70;;;;;;5051142;28;20158;-77
2021/03/15 09:11:38;;;;;;;12.20;5.27;;;13.10;72.90;;;;;;5083076;28;20332;-80
2021/03/15 09:14:32;;;;;;;13.32;5.88;;;13.20;72.90;;;;;;5073530;28;20038;-77
2021/03/15 09:17:13;;;;;;;15.82;5.93;;;13.20;72.70;;;;;;5064293;28;20049;-77
2021/03/15 09:19:39;;;;;;;14.00;5.05;;;13.30;72.70;;;;;;5053266;28;20070;-82
2021/03/15 09:22:31;;;;;;;16.35;5.68;;;13.30;72.60;;;;;;5051984;28;20466;-75
2021/03/15 09:24:59;;;;;;;9.98;5.28;;;13.30;72.50;;;;;;5069488;28;20089;-78
2021/03/15 09:27:38;;;;;;;10.90;5.25;;;13.30;72.50;;;;;;5073428;28;20397;-77
2021/03/15 09:30:06;;;;;;;12.60;5.30;;;13.30;72.50;;;;;;5075676;28;20215;-79
2021/03/15 09:32:40;;;;;;;10.15;4.57;;;13.30;72.50;;;;;;5067495;28;20036;-78
2021/03/15 09:35:19;;;;;;;10.13;4.72;;;13.30;72.50;;;;;;5034027;28;20037;-79
2021/03/15 09:37:51;;;;;;;16.48;5.35;;;13.40;72.60;;;;;;5054612;28;20044;-78
2021/03/15 09:40:20;;;;;;;12.45;5.53;;;13.40;72.50;;;;;;5072601;28;20060;-80
2021/03/15 09:42:46;;;;;;;10.07;4.70;;;13.50;72.60;;;;;;5054005;28;20028;-77
2021/03/15 09:45:22;;;;;;;11.55;5.88;;;13.50;72.50;;;;;;5051626;28;20066;-80
2021/03/15 09:47:48;;;;;;;14.13;5.35;;;13.60;72.60;;;;;;5069945;28;20562;-77
2021/03/15 09:50:30;;;;;;;15.52;4.70;;;13.50;72.30;;;;;;5053173;28;20488;-78
2021/03/15 09:53:13;;;;;;;10.68;4.60;;;13.60;72.30;;;;;;5070109;28;20029;-79
2021/03/15 09:55:49;;;;;;;13.02;5.32;;;13.60;72.20;;;;;;5070661;28;20146;-79
2021/03/15 09:58:19;;;;;;;10.70;5.18;;;13.60;72.20;;;;;;5053392;28;20101;-78
2021/03/15 10:00:54;;;;;;;11.70;4.80;;;13.50;71.90;;;;;;5073051;28;20119;-80
2021/03/15 10:03:55;;;;;;;13.05;5.15;;;13.50;71.90;;;;;;5074535;28;20028;-77
2021/03/15 10:06:42;;;;;;;13.20;5.03;;;13.50;71.80;;;;;;5078967;28;20040;-79
2021/03/15 10:09:47;;;;;;;10.90;4.93;;;13.50;71.80;;;;;;5068704;28;20040;-81
2021/03/15 10:12:36;;;;;;;13.82;5.57;;;13.40;71.60;;;;;;5048600;28;20118;-79
2021/03/15 10:15:25;;;;;;;10.70;4.95;;;13.40;71.60;;;;;;5066946;28;20028;-77
2021/03/15 10:18:03;;;;;;;9.93;4.88;;;13.40;71.60;;;;;;5066713;28;20174;-79
2021/03/15 10:20:38;;;;;;;11.75;5.45;;;13.40;71.60;;;;;;5052222;28;20040;-79
2021/03/15 10:23:17;;;;;;;16.80;5.53;;;13.30;71.40;;;;;;5066345;28;20095;-80
2021/03/15 10:25:57;;;;;;;10.05;5.10;;;13.30;71.40;;;;;;5067152;28;20515;-78
2021/03/15 10:28:28;;;;;;;15.43;5.75;;;13.30;71.40;;;;;;5067203;28;20094;-79
2021/03/15 10:30:55;;;;;;;10.32;4.78;;;13.40;71.60;;;;;;5067966;28;20051;-78
2021/03/15 10:33:25;;;;;;;20.77;6.50;;;13.40;71.60;;;;;;5067337;28;20171;-78
2021/03/15 10:35:53;;;;;;;13.45;5.07;;;13.40;71.70;;;;;;5068087;28;20028;-78
2021/03/15 10:38:27;;;;;;;14.30;5.40;;;13.50;72.00;;;;;;5049943;28;20036;-88
2021/03/15 10:41:01;;;;;;;22.73;6.10;;;13.60;72.20;;;;;;5052648;28;20288;-88
2021/03/15 10:43:28;;;;;;;11.55;5.28;;;13.70;72.30;;;;;;5047601;28;20531;-80
2021/03/15 10:46:18;;;;;;;11.48;5.63;;;13.80;72.30;;;;;;5047777;28;20021;-80
2021/03/15 10:48:47;;;;;;;12.85;5.57;;;13.90;72.30;;;;;;5057739;28;20127;-82
2021/03/15 10:51:14;;;;;;;15.80;5.78;;;14.00;72.30;;;;;;5051083;28;20051;-80
2021/03/15 10:53:50;;;;;;;17.75;6.32;;;14.00;72.10;;;;;;5050708;28;20051;-82
2021/03/15 10:56:23;;;;;;;12.60;5.10;;;14.20;72.30;;;;;;5065979;28;20052;-79
2021/03/15 10:58:56;;;;;;;13.52;5.57;;;14.30;72.20;;;;;;5070503;28;20059;-79
2021/03/15 11:01:27;;;;;;;14.57;6.00;;;14.40;72.20;;;;;;5068787;28;20336;-79
2021/03/15 11:04:12;;;;;;;15.52;5.65;;;14.60;72.30;;;;;;5052470;28;20468;-78
2021/03/15 11:06:48;;;;;;;13.75;5.13;;;14.80;72.30;;;;;;5051032;28;20025;-80
2021/03/15 11:09:19;;;;;;;14.30;5.70;;;14.90;72.20;;;;;;5046216;28;20388;-83
2021/03/15 11:11:54;;;;;;;14.40;4.82;;;15.00;72.10;;;;;;5046337;28;20032;-80
2021/03/15 11:14:23;;;;;;;10.65;5.75;;;15.10;72.00;;;;;;5049618;28;20066;-82
2021/03/15 11:17:01;;;;;;;12.80;4.10;;;15.20;72.10;;;;;;5066300;28;20237;-79
2021/03/15 11:19:33;;;;;;;11.80;4.90;;;15.30;72.00;;;;;;5034120;28;20158;-78
2021/03/15 11:22:00;;;;;;;15.45;5.05;;;15.40;72.10;;;;;;5066016;28;20116;-82
2021/03/15 11:24:34;;;;;;;9.98;4.70;;;15.50;72.10;;;;;;5031536;28;20044;-79
2021/03/15 11:27:05;;;;;;;9.52;5.22;;;15.60;72.00;;;;;;5029561;28;20044;-78
2021/03/15 11:30:01;;;;;;;12.45;5.07;;;15.70;72.10;;;;;;5043445;28;20025;-79
2021/03/15 11:32:46;;;;;;;10.25;5.00;;;15.80;72.00;;;;;;5045811;28;20028;-82
2021/03/15 11:35:29;;;;;;;9.13;4.82;;;15.90;72.00;;;;;;5062947;28;20124;-83
2021/03/15 11:38:09;;;;;;;10.40;4.30;;;16.10;72.10;;;;;;5051044;28;20545;-81
2021/03/15 11:40:44;;;;;;;16.05;5.40;;;16.20;72.00;;;;;;5065560;28;20033;-78
2021/03/15 11:43:14;;;;;;;12.75;5.13;;;16.20;71.80;;;;;;5048933;28;20067;-78
2021/03/15 11:45:47;;;;;;;;;;;16.30;71.80;;;;;;5050261;28;20024;-77
2021/03/15 11:48:13;;;;;;;10.02;4.57;;;16.30;71.70;;;;;;5058085;28;20407;-78
2021/03/15 11:50:59;;;;;;;12.95;6.15;;;16.30;71.50;;;;;;5059445;28;20045;-80
2021/03/15 11:53:37;;;;;;;10.38;4.78;;;16.30;71.40;;;;;;5056665;28;20040;-81
2021/03/15 11:56:05;;;;;;;15.60;5.97;;;16.30;71.30;;;;;;5049416;28;20167;-80
2021/03/15 11:58:32;;;;;;;14.00;5.22;;;16.40;71.40;;;;;;5048946;28;20048;-78
2021/03/15 12:00:58;;;;;;;11.50;4.90;;;16.40;71.30;;;;;;5048918;28;20070;-81
2021/03/15 12:03:29;;;;;;;13.88;5.60;;;16.50;71.40;;;;;;5065487;28;20076;-84
2021/03/15 12:06:14;;;;;;;10.63;5.15;;;16.60;71.40;;;;;;5066333;28;20107;-79
2021/03/15 12:08:58;;;;;;;11.15;4.95;;;16.60;71.80;;;;;;5065629;28;20037;-80
2021/03/15 12:11:25;;;;;;;14.25;4.60;;;16.70;71.30;;;;;;5064208;28;20039;-78
2021/03/15 12:13:52;;;;;;;11.68;4.63;;;16.70;71.10;;;;;;5076759;28;20488;-76
2021/03/15 12:16:19;;;;;;;16.25;5.90;;;16.80;71.10;;;;;;5085310;28;20128;-79
2021/03/15 12:18:48;;;;;;;12.27;5.82;;;16.80;71.00;;;;;;5054159;28;20483;-79
2021/03/15 12:21:14;;;;;;;9.60;4.60;;;16.80;70.80;;;;;;5060566;28;20028;-77
2021/03/15 12:23:47;;;;;;;10.43;4.43;;;16.90;70.80;;;;;;5058486;28;20107;-78
2021/03/15 12:26:16;;;;;;;10.05;5.18;;;17.00;70.80;;;;;;5064502;28;20476;-77
2021/03/15 12:28:47;;;;;;;11.77;5.28;;;17.10;70.90;;;;;;5063792;28;20048;-77
2021/03/15 12:31:24;;;;;;;11.23;4.78;;;17.20;70.90;;;;;;5064012;28;20032;-76
2021/03/15 12:33:55;;;;;;;7.15;4.18;;;17.20;70.80;;;;;;5063489;28;20048;-76
2021/03/15 12:36:21;;;;;;;12.30;5.07;;;17.30;70.80;;;;;;5047289;28;20028;-76
2021/03/15 12:38:49;;;;;;;10.43;4.47;;;17.40;70.80;;;;;;5070608;28;20384;-79
2021/03/15 12:41:15;;;;;;;10.68;4.72;;;17.40;70.70;;;;;;5048219;28;20089;-78
2021/03/15 12:43:43;;;;;;;7.43;3.58;;;17.50;70.70;;;;;;5064120;28;20028;-79
2021/03/15 12:46:25;;;;;;;12.88;4.85;;;17.60;70.70;;;;;;5049316;28;20028;-78
2021/03/15 12:48:54;;;;;;;11.48;5.07;;;17.60;70.50;;;;;;5054846;28;20036;-77
2021/03/15 12:51:20;;;;;;;11.30;5.07;;;17.60;70.40;;;;;;5059973;28;20392;-78
2021/03/15 12:53:47;;;;;;;10.60;4.72;;;17.60;70.30;;;;;;5047221;28;20254;-78
2021/03/15 12:56:21;;;;;;;10.23;4.30;;;17.60;70.10;;;;;;5048374;28;20055;-77
2021/03/15 12:58:48;;;;;;;10.23;4.55;;;17.60;70.10;;;;;;5065751;28;20032;-77
2021/03/15 13:01:24;;;;;;;10.25;4.97;;;17.60;70.00;;;;;;5064584;28;20612;-77
2021/03/15 13:03:54;;;;;;;11.40;4.43;;;17.70;70.10;;;;;;5043356;28;20029;-78